KCIC/CIC METAR and TAF weather

Enter ICAO airport designator
Station Type Date Time Source
KCIC METAR 2018/07/21 13:15 UTC NOAA

KCIC 211315Z AUTO 12008KT 10SM CLR 23/10 A2991 RMK AO1


Station Type Date Time Source
KCIC Decoded METAR 2018/07/21 13:15 UTC NOAA

Chico Municipal , CA, United States (KCIC) 39-48N 121-51W
Jul 21, 2018 - 09:15 AM EDT / 2018.07.21 1315 UTC
Wind: from the ESE (120 degrees) at 9 MPH (8 KT):0
Visibility: 10 mile(s):0
Sky conditions: clear
Temperature: 73 F (23 C)
Dew Point: 50 F (10 C)
Relative Humidity: 43%
Pressure (altimeter): 29.91 in. Hg (1012 hPa)
ob: KCIC 211315Z AUTO 12008KT 10SM CLR 23/10 A2991 RMK AO1
cycle: 13

Station Type Date Time Source
KCIC TAF UTC NOAA

Error!


Example: see airport list